createdAt,value
2023-01-18T06:14:34.549Z,98576.66
2023-01-18T06:17:03.069Z,98579.64
2023-01-18T06:19:30.300Z,98583.15
2023-01-18T06:21:56.883Z,98591.75
2023-01-18T06:24:23.569Z,98594.36
2023-01-18T06:26:51.107Z,98592.88
2023-01-18T06:29:18.072Z,98591.43
2023-01-18T06:31:46.557Z,98585.95
2023-01-18T06:34:14.333Z,98585.55
2023-01-18T06:36:41.457Z,98586.75
2023-01-18T06:39:08.212Z,98587.09
2023-01-18T06:41:39.067Z,98589.04
2023-01-18T06:44:13.893Z,98583.39
2023-01-18T06:46:43.786Z,98581.80
2023-01-18T06:49:13.103Z,98583.48
2023-01-18T06:51:41.222Z,98590.45
2023-01-18T06:54:10.035Z,98586.76
2023-01-18T06:56:37.532Z,98583.70
2023-01-18T06:59:08.297Z,98581.48
2023-01-18T07:01:35.759Z,98578.65
2023-01-18T07:04:03.969Z,98577.14
2023-01-18T07:06:33.316Z,98578.63
2023-01-18T07:09:00.232Z,98573.60
2023-01-18T07:11:29.252Z,98576.19
2023-01-18T07:13:58.782Z,98575.05
2023-01-18T07:16:29.972Z,98579.76
2023-01-18T07:19:12.418Z,98573.52
2023-01-18T07:21:45.682Z,98570.92
2023-01-18T07:24:14.446Z,98576.77
2023-01-18T07:26:47.332Z,98577.17
2023-01-18T07:29:17.419Z,98577.15
2023-01-18T07:35:41.321Z,98565.57
2023-01-18T07:38:27.014Z,98573.06
2023-01-18T07:41:07.914Z,98564.76
2023-01-18T07:43:50.712Z,98559.02
2023-01-18T07:46:46.239Z,98553.52
2023-01-18T07:49:25.938Z,98557.27
2023-01-18T07:52:33.109Z,98556.80
2023-01-18T07:55:06.902Z,98559.64
2023-01-18T07:57:53.162Z,98563.88
2023-01-18T08:03:30.670Z,98556.79
2023-01-18T08:06:03.791Z,98552.88
2023-01-18T11:15:25.326Z,98430.25
2023-01-18T11:23:12.618Z,98432.85
2023-01-18T11:26:40.714Z,98444.52
2023-01-18T11:29:22.138Z,98442.25
2023-01-18T11:32:23.564Z,98438.73
2023-01-18T11:35:03.549Z,98436.19
2023-01-18T11:37:46.061Z,98432.65
2023-01-18T11:40:36.144Z,98434.63
2023-01-18T11:43:49.394Z,98434.35
2023-01-18T11:53:49.234Z,98430.62
2023-01-18T12:00:34.145Z,98439.10
2023-01-18T12:04:26.667Z,98425.46
2023-01-18T12:08:00.595Z,98431.04
2023-01-18T12:10:51.918Z,98423.27
2023-01-18T12:14:30.072Z,98435.44
2023-01-18T12:17:23.650Z,98434.16
2023-01-18T12:27:25.960Z,98429.17
2023-01-18T12:30:25.949Z,98433.67
2023-01-18T12:37:19.741Z,98448.24
2023-01-18T12:40:06.453Z,98438.94
2023-01-18T12:43:18.006Z,98440.58
2023-01-18T12:46:42.913Z,98444.17
2023-01-18T12:49:29.246Z,98445.55
2023-01-18T12:52:30.857Z,98440.30
2023-01-18T12:55:25.693Z,98460.64
2023-01-18T12:58:46.629Z,98465.04
2023-01-18T13:01:26.504Z,98452.80
2023-01-18T13:04:28.889Z,98443.48
2023-01-18T13:07:06.818Z,98436.96
2023-01-18T13:09:49.953Z,98435.57
2023-01-18T13:12:25.902Z,98434.91
2023-01-18T13:15:06.010Z,98445.60
2023-01-18T13:17:52.662Z,98446.80
2023-01-18T13:20:53.888Z,98431.77
2023-01-18T13:23:28.387Z,98427.77
2023-01-18T13:26:14.660Z,98436.84
2023-01-18T13:28:47.630Z,98437.09
2023-01-18T13:31:14.906Z,98436.32
2023-01-18T13:33:45.651Z,98449.48
2023-01-18T13:36:25.497Z,98448.73
2023-01-18T13:39:00.805Z,98451.82
2023-01-18T13:41:31.264Z,98455.11
2023-01-18T13:44:09.448Z,98461.36
2023-01-18T13:46:43.151Z,98471.40
2023-01-18T13:49:45.054Z,98474.20
2023-01-18T13:52:38.193Z,98469.94
2023-01-18T13:55:24.953Z,98479.95
2023-01-18T13:57:58.070Z,98482.60
2023-01-18T14:00:26.629Z,98488.23
2023-01-18T14:03:01.806Z,98477.45
2023-01-18T14:05:56.906Z,98478.73
2023-01-18T14:08:30.041Z,98485.41
2023-01-18T14:11:07.590Z,98478.86
2023-01-18T14:13:46.689Z,98482.72
2023-01-18T14:16:38.357Z,98479.52
2023-01-18T14:19:17.538Z,98477.95
2023-01-18T14:22:19.000Z,98481.20
2023-01-18T14:25:18.009Z,98472.64
2023-01-18T14:27:51.850Z,98471.30
2023-01-18T14:30:46.422Z,98480.08
2023-01-18T14:33:27.503Z,98465.20
2023-01-18T14:35:58.219Z,98467.80
2023-01-18T14:38:36.426Z,98474.27
2023-01-18T14:41:06.409Z,98481.43
2023-01-18T14:43:36.812Z,98481.13
2023-01-18T14:46:17.171Z,98482.85
2023-01-18T14:48:55.911Z,98469.70
2023-01-18T14:51:25.355Z,98470.76
2023-01-18T14:54:04.887Z,98486.89
2023-01-18T14:56:43.832Z,98494.42
2023-01-18T14:59:30.707Z,98504.63
2023-01-18T15:02:37.865Z,98503.24
2023-01-18T15:05:17.470Z,98521.61
2023-01-18T15:07:50.319Z,98524.61
2023-01-18T15:10:19.986Z,98523.83
2023-01-18T15:12:54.129Z,98514.10
2023-01-18T15:15:31.316Z,98518.10
2023-01-18T15:18:11.634Z,98517.95
2023-01-18T15:20:59.916Z,98525.93
2023-01-18T15:23:34.808Z,98521.77
2023-01-18T15:26:04.102Z,98526.54
2023-01-18T15:28:39.934Z,98523.33
2023-01-18T15:31:16.742Z,98541.29
2023-01-18T15:33:44.904Z,98539.15
2023-01-18T15:36:23.791Z,98537.72
2023-01-18T15:38:53.273Z,98542.20
2023-01-18T15:41:23.889Z,98540.77
2023-01-18T15:43:51.690Z,98554.15
2023-01-18T15:46:18.826Z,98545.27
2023-01-18T15:48:54.440Z,98548.42
2023-01-18T15:51:42.884Z,98543.04
2023-01-18T15:54:18.468Z,98532.83
2023-01-18T15:56:46.027Z,98529.86
2023-01-18T15:59:18.481Z,98539.73
2023-01-18T16:02:23.098Z,98522.61
2023-01-18T16:05:32.891Z,98522.17
2023-01-18T16:08:19.446Z,98524.52
2023-01-18T16:10:52.934Z,98516.22
2023-01-18T16:13:23.307Z,98525.44
2023-01-18T16:16:03.156Z,98531.20
2023-01-18T16:18:30.310Z,98539.17
2023-01-18T16:20:57.675Z,98548.71
2023-01-18T16:23:25.586Z,98543.04
2023-01-18T16:25:54.112Z,98555.64
2023-01-18T16:28:39.439Z,98550.77
2023-01-18T16:31:08.714Z,98566.95
2023-01-18T16:33:35.648Z,98568.59
2023-01-18T16:36:18.027Z,98564.36
2023-01-18T16:38:45.825Z,98571.68
2023-01-18T16:41:16.994Z,98563.22
2023-01-18T16:43:45.199Z,98571.33
2023-01-18T16:46:12.370Z,98572.81
2023-01-18T16:48:39.379Z,98574.74
2023-01-18T16:51:17.112Z,98577.17
2023-01-18T16:53:44.549Z,98574.46
2023-01-18T16:56:14.380Z,98577.13
2023-01-18T16:58:43.171Z,98581.45
2023-01-18T17:01:14.757Z,98591.86
2023-01-18T17:03:42.753Z,98592.30
2023-01-18T17:06:16.905Z,98587.84
2023-01-18T17:08:44.033Z,98592.48
2023-01-18T17:11:12.456Z,98596.61
2023-01-18T17:13:41.387Z,98596.14
2023-01-18T17:16:16.686Z,98612.84
2023-01-18T17:18:47.970Z,98605.86
2023-01-18T17:21:16.010Z,98611.77
2023-01-18T17:23:48.568Z,98603.39
2023-01-18T17:26:15.790Z,98621.97
2023-01-18T17:28:42.842Z,98633.77
2023-01-18T17:31:12.070Z,98631.59
2023-01-18T17:33:42.703Z,98633.36
2023-01-18T17:36:10.337Z,98622.84
2023-01-18T17:38:44.325Z,98648.83
2023-01-18T17:41:27.261Z,98658.68
2023-01-18T17:43:58.679Z,98660.98
2023-01-18T17:46:25.883Z,98645.49
2023-01-18T17:48:52.827Z,98644.83
2023-01-18T17:51:22.629Z,98658.27
2023-01-18T17:53:51.525Z,98682.17
2023-01-18T17:56:54.181Z,98662.14
2023-01-18T18:00:01.435Z,98669.70
2023-01-18T18:03:25.421Z,98682.33
2023-01-18T18:06:02.564Z,98688.84
2023-01-18T18:08:30.433Z,98681.86
2023-01-18T18:11:00.277Z,98690.56
2023-01-18T18:13:27.778Z,98692.08
2023-01-18T18:15:56.072Z,98701.62
2023-01-18T18:18:23.893Z,98718.16
2023-01-18T18:20:57.460Z,98736.52
2023-01-18T18:23:25.045Z,98732.50
2023-01-18T18:25:51.986Z,98718.84
2023-01-18T18:28:19.502Z,98724.09
2023-01-18T18:30:50.077Z,98727.38
2023-01-18T18:33:18.568Z,98708.88
2023-01-18T18:35:49.612Z,98703.14
2023-01-18T18:38:18.976Z,98696.87
2023-01-18T18:40:47.158Z,98695.38
2023-01-18T18:43:15.202Z,98701.69
2023-01-18T18:45:42.726Z,98691.87
2023-01-18T18:48:13.281Z,98703.55
2023-01-18T18:50:40.354Z,98713.50
2023-01-18T18:53:07.787Z,98724.48
2023-01-18T18:55:35.090Z,98725.09
2023-01-18T18:58:04.456Z,98719.75
2023-01-18T19:00:31.391Z,98714.73
2023-01-18T19:03:01.305Z,98722.02
2023-01-18T19:05:28.605Z,98732.05
2023-01-18T19:07:55.706Z,98744.14
2023-01-18T19:10:27.513Z,98753.67
2023-01-18T19:12:55.012Z,98755.31
2023-01-18T19:15:22.733Z,98749.86
2023-01-18T19:17:51.323Z,98750.38
2023-01-18T19:20:20.632Z,98764.73
2023-01-18T19:22:51.716Z,98778.48
2023-01-18T19:25:22.676Z,98788.83
2023-01-18T19:27:50.065Z,98786.84
2023-01-18T19:30:24.019Z,98789.07
2023-01-18T19:32:51.505Z,98787.65
2023-01-18T19:35:20.379Z,98800.90
2023-01-18T19:37:56.468Z,98812.09
2023-01-18T19:40:23.714Z,98810.98
2023-01-18T19:42:55.994Z,98820.91
2023-01-18T19:45:28.197Z,98820.87
2023-01-18T19:47:57.732Z,98815.61
2023-01-18T19:50:25.059Z,98826.06
2023-01-18T19:52:53.226Z,98840.50
2023-01-18T19:55:21.735Z,98843.63
2023-01-18T19:57:52.370Z,98855.23
2023-01-18T20:00:19.803Z,98841.65
2023-01-18T20:02:47.256Z,98850.50
2023-01-18T20:05:15.115Z,98864.70
2023-01-18T20:07:44.796Z,98871.84
2023-01-18T20:10:12.965Z,98871.05
2023-01-18T20:12:39.894Z,98884.12
2023-01-18T20:15:08.817Z,98884.30
2023-01-18T20:17:38.374Z,98909.46
2023-01-18T20:20:05.936Z,98901.46
2023-01-18T20:22:32.871Z,98907.52
2023-01-18T20:25:02.749Z,98915.02
2023-01-18T20:27:29.696Z,98920.05
2023-01-18T20:29:58.244Z,98917.14
2023-01-18T20:32:25.716Z,98917.61
2023-01-18T20:34:53.442Z,98929.40
2023-01-18T20:37:21.445Z,98932.83
2023-01-18T20:39:50.413Z,98941.08
2023-01-18T20:42:17.681Z,98937.73
2023-01-18T20:44:49.326Z,98939.31
2023-01-18T20:47:16.418Z,98946.04
2023-01-18T20:49:44.984Z,98951.80
2023-01-18T20:52:12.024Z,98952.06
2023-01-18T20:54:39.011Z,98949.17
2023-01-18T20:57:06.018Z,98952.27
2023-01-18T20:59:33.214Z,98956.46
2023-01-18T21:02:00.368Z,98952.91
2023-01-18T21:04:27.617Z,98957.48
2023-01-18T21:06:57.349Z,98953.81
2023-01-18T21:09:28.669Z,98953.69
2023-01-18T21:11:55.600Z,98956.60
2023-01-18T21:14:23.361Z,98949.73
2023-01-18T21:16:50.376Z,98946.45
2023-01-18T21:19:18.205Z,98954.41
2023-01-18T21:21:45.454Z,98954.85
2023-01-18T21:24:12.508Z,98965.36
2023-01-18T21:26:39.574Z,98963.73
2023-01-18T21:29:33.499Z,98966.59
2023-01-18T21:32:05.510Z,98979.61
2023-01-18T21:34:33.532Z,98989.15
2023-01-18T21:37:00.421Z,98996.67
2023-01-18T21:39:29.234Z,99002.23
2023-01-18T21:42:14.610Z,98998.70
2023-01-18T21:45:00.143Z,99006.62
2023-01-18T21:47:27.107Z,99011.52
2023-01-18T21:50:17.608Z,99014.85
2023-01-18T21:53:06.638Z,99014.29
2023-01-18T21:55:34.384Z,99017.19
2023-01-18T21:58:19.663Z,99017.10
2023-01-18T22:00:47.700Z,99016.13
2023-01-18T22:03:15.605Z,99016.10
2023-01-18T22:05:42.566Z,99012.25
2023-01-18T22:08:09.925Z,99018.63
2023-01-18T22:10:36.869Z,99023.33
2023-01-18T22:13:03.794Z,99027.86
2023-01-18T22:15:30.779Z,99026.48
2023-01-18T22:17:58.420Z,99031.98
2023-01-18T22:20:27.958Z,99035.63
2023-01-18T22:22:55.962Z,99037.02
2023-01-18T22:25:23.076Z,99042.64
2023-01-18T22:27:50.141Z,99056.02
2023-01-18T22:30:17.336Z,99065.45
2023-01-18T22:32:44.342Z,99066.92
2023-01-18T22:35:11.397Z,99065.45
2023-01-18T22:37:38.230Z,99063.85
2023-01-18T22:40:05.856Z,99074.50
2023-01-18T22:42:33.057Z,99076.80
2023-01-18T22:45:02.828Z,99079.54
2023-01-18T22:47:29.656Z,99090.35
2023-01-18T22:49:57.248Z,99102.73
2023-01-18T22:52:25.352Z,99105.48
2023-01-18T22:54:52.534Z,99113.06
2023-01-18T22:57:19.585Z,99110.10
2023-01-18T22:59:47.953Z,99105.02
2023-01-18T23:02:15.367Z,99100.39
2023-01-18T23:04:42.209Z,99087.73
2023-01-18T23:07:09.312Z,99084.95
2023-01-18T23:09:36.351Z,99093.80
2023-01-18T23:12:04.031Z,99101.59
2023-01-18T23:14:50.005Z,99107.64
2023-01-18T23:17:35.964Z,99113.05
2023-01-18T23:20:03.030Z,99107.55
2023-01-18T23:22:31.238Z,99108.17
2023-01-18T23:25:00.501Z,99129.80
2023-01-18T23:27:27.408Z,99136.96
2023-01-18T23:29:57.999Z,99136.27
2023-01-18T23:32:28.883Z,99146.79
2023-01-18T23:34:59.289Z,99163.24
2023-01-18T23:37:26.739Z,99181.14
2023-01-18T23:40:12.207Z,99180.95
2023-01-18T23:42:58.742Z,99187.99
2023-01-18T23:45:44.317Z,99215.11
2023-01-18T23:48:31.575Z,99231.80
2023-01-18T23:51:17.023Z,99237.44
2023-01-18T23:54:03.755Z,99239.42
2023-01-18T23:56:30.885Z,99242.30
2023-01-18T23:58:59.910Z,99239.24
